createdAt,value
2023-05-06T00:01:54.124Z,96360.84
2023-05-06T00:04:22.524Z,96359.28
2023-05-06T00:06:51.435Z,96354.13
2023-05-06T00:09:19.744Z,96355.88
2023-05-06T00:11:48.411Z,96358.28
2023-05-06T00:14:16.865Z,96363.56
2023-05-06T00:16:46.621Z,96356.78
2023-05-06T00:19:14.958Z,96354.66
2023-05-06T00:21:43.168Z,96346.50
2023-05-06T00:24:11.442Z,96347.16
2023-05-06T00:26:39.737Z,96343.00
2023-05-06T00:29:07.975Z,96341.59
2023-05-06T00:31:36.276Z,96343.69
2023-05-06T00:34:05.931Z,96343.19
2023-05-06T00:36:34.187Z,96343.56
2023-05-06T00:39:02.473Z,96340.25
2023-05-06T00:41:32.858Z,96327.81
2023-05-06T00:44:01.208Z,96337.53
2023-05-06T00:46:29.528Z,96326.91
2023-05-06T00:48:57.906Z,96325.91
2023-05-06T00:51:28.047Z,96324.53
2023-05-06T00:53:56.788Z,96312.50
2023-05-06T00:56:25.147Z,96331.75
2023-05-06T00:58:53.959Z,96320.75
2023-05-06T01:01:23.912Z,96312.63
2023-05-06T01:03:57.244Z,96317.31
2023-05-06T01:06:31.126Z,96309.69
2023-05-06T01:09:05.960Z,96312.03
2023-05-06T01:11:40.083Z,96312.28
2023-05-06T01:14:13.716Z,96315.28
2023-05-06T01:16:42.746Z,96313.31
2023-05-06T01:19:14.153Z,96314.94
2023-05-06T01:21:45.793Z,96315.38
2023-05-06T01:24:15.444Z,96315.78
2023-05-06T01:26:44.036Z,96312.72
2023-05-06T01:29:12.976Z,96306.94
2023-05-06T01:31:46.589Z,96302.50
2023-05-06T01:34:19.048Z,96306.47
2023-05-06T01:36:53.668Z,96309.56
2023-05-06T01:39:27.350Z,96310.13
2023-05-06T01:41:59.300Z,96307.81
2023-05-06T01:44:29.133Z,96307.63
2023-05-06T01:48:01.740Z,96312.59
2023-05-06T01:50:30.731Z,96312.41
2023-05-06T01:53:00.048Z,96325.00
2023-05-06T01:55:30.118Z,96324.34
2023-05-06T01:57:58.360Z,96318.28
2023-05-06T02:00:27.202Z,96318.06
2023-05-06T02:02:55.541Z,96308.75
2023-05-06T02:05:23.831Z,96311.44
2023-05-06T02:07:52.046Z,96311.97
2023-05-06T02:10:20.330Z,96308.56
2023-05-06T02:12:50.036Z,96313.13
2023-05-06T02:15:18.578Z,96304.06
2023-05-06T02:17:46.811Z,96309.97
2023-05-06T02:20:15.064Z,96301.81
2023-05-06T02:22:43.314Z,96305.66
2023-05-06T02:25:11.655Z,96309.59
2023-05-06T02:27:40.290Z,96310.91
2023-05-06T02:30:10.838Z,96303.91
2023-05-06T02:32:38.980Z,96305.16
2023-05-06T02:35:08.587Z,96311.41
2023-05-06T02:37:37.058Z,96300.63
2023-05-06T02:40:06.697Z,96307.25
2023-05-06T02:42:35.378Z,96305.25
2023-05-06T02:45:03.680Z,96305.19
2023-05-06T02:47:33.462Z,96302.13
2023-05-06T02:50:01.707Z,96311.47
2023-05-06T02:52:29.973Z,96315.72
2023-05-06T02:54:58.179Z,96310.41
2023-05-06T02:57:26.483Z,96300.94
2023-05-06T02:59:54.719Z,96308.78
2023-05-06T03:02:23.020Z,96295.19
2023-05-06T03:04:52.808Z,96299.66
2023-05-06T03:07:21.194Z,96299.38
2023-05-06T03:09:49.458Z,96291.81
2023-05-06T03:12:17.777Z,96296.69
2023-05-06T03:14:45.967Z,96297.50
2023-05-06T03:17:14.262Z,96298.78
2023-05-06T03:19:42.621Z,96298.25
2023-05-06T03:22:12.194Z,96298.06
2023-05-06T03:24:40.653Z,96294.28
2023-05-06T03:27:09.400Z,96297.34
2023-05-06T03:29:37.661Z,96295.34
2023-05-06T03:32:06.537Z,96291.00
2023-05-06T03:34:34.787Z,96296.81
2023-05-06T03:37:03.101Z,96299.16
2023-05-06T03:39:32.738Z,96291.63
2023-05-06T03:42:01.002Z,96294.47
2023-05-06T03:44:29.218Z,96292.97
2023-05-06T03:46:57.466Z,96295.94
2023-05-06T03:49:26.001Z,96292.59
2023-05-06T03:51:54.467Z,96288.97
2023-05-06T03:54:23.211Z,96278.75
2023-05-06T03:56:52.806Z,96284.06
2023-05-06T03:59:21.040Z,96282.09
2023-05-06T04:01:49.370Z,96286.88
2023-05-06T04:04:17.911Z,96292.41
2023-05-06T04:06:46.168Z,96294.47
2023-05-06T04:09:14.448Z,96292.41
2023-05-06T04:11:42.683Z,96294.84
2023-05-06T04:14:12.270Z,96293.91
2023-05-06T04:16:40.626Z,96293.94
2023-05-06T04:19:09.309Z,96296.22
2023-05-06T04:21:37.536Z,96299.34
2023-05-06T04:24:06.253Z,96300.19
2023-05-06T04:26:35.065Z,96300.31
2023-05-06T04:29:03.322Z,96305.66
2023-05-06T04:31:33.232Z,96313.50
2023-05-06T04:34:02.681Z,96314.41
2023-05-06T04:36:31.000Z,96320.97
2023-05-06T04:38:59.230Z,96325.50
2023-05-06T04:41:29.302Z,96328.09
2023-05-06T04:43:57.804Z,96322.19
2023-05-06T04:46:26.127Z,96324.22
2023-05-06T04:48:56.913Z,96332.88
2023-05-06T04:51:25.282Z,96332.63
2023-05-06T04:53:53.667Z,96323.09
2023-05-06T04:56:22.559Z,96335.50
2023-05-06T04:58:50.873Z,96332.06
2023-05-06T05:01:19.531Z,96340.88
2023-05-06T05:03:47.856Z,96346.31
2023-05-06T05:06:17.575Z,96362.63
2023-05-06T05:08:45.821Z,96354.63
2023-05-06T05:11:14.113Z,96355.41
2023-05-06T05:13:42.378Z,96355.03
2023-05-06T05:16:10.608Z,96356.41
2023-05-06T05:18:38.811Z,96360.59
2023-05-06T05:21:07.159Z,96361.00
2023-05-06T05:23:36.744Z,96361.06
2023-05-06T05:26:05.138Z,96361.28
2023-05-06T05:28:33.501Z,96366.09
2023-05-06T05:31:03.411Z,96367.25
2023-05-06T05:33:31.714Z,96370.31
2023-05-06T05:36:00.030Z,96366.72
2023-05-06T05:38:28.322Z,96378.38
2023-05-06T05:40:58.124Z,96374.44
2023-05-06T05:43:27.043Z,96370.03
2023-05-06T05:45:55.401Z,96370.63
2023-05-06T05:48:23.867Z,96367.28
2023-05-06T05:50:52.091Z,96363.22
2023-05-06T05:53:20.334Z,96367.56
2023-05-06T05:55:48.557Z,96361.19
2023-05-06T05:58:18.446Z,96370.03
2023-05-06T06:00:46.637Z,96356.03
2023-05-06T06:03:14.971Z,96369.53
2023-05-06T06:05:43.286Z,96368.09
2023-05-06T06:08:11.580Z,96372.44
2023-05-06T06:10:39.772Z,96368.66
2023-05-06T06:13:08.076Z,96368.59
2023-05-06T06:15:37.952Z,96373.25
2023-05-06T06:18:08.727Z,96370.06
2023-05-06T06:20:38.715Z,96382.94
2023-05-06T06:23:07.000Z,96383.91
2023-05-06T06:25:35.257Z,96387.19
2023-05-06T06:28:03.482Z,96394.13
2023-05-06T06:30:31.864Z,96392.78
2023-05-06T06:33:02.126Z,96395.25
2023-05-06T06:35:30.461Z,96395.19
2023-05-06T06:37:58.678Z,96400.66
2023-05-06T06:40:27.064Z,96400.34
2023-05-06T06:42:55.421Z,96405.75
2023-05-06T06:45:24.056Z,96397.75
2023-05-06T06:47:52.410Z,96404.66
2023-05-06T06:50:22.283Z,96399.06
2023-05-06T06:52:50.542Z,96409.97
2023-05-06T06:55:19.362Z,96402.22
2023-05-06T06:57:47.592Z,96415.94
2023-05-06T07:00:16.546Z,96405.47
2023-05-06T07:02:46.921Z,96412.91
2023-05-06T07:05:15.408Z,96410.56
2023-05-06T07:07:45.089Z,96402.22
2023-05-06T07:10:13.353Z,96398.94
2023-05-06T07:12:41.654Z,96401.91
2023-05-06T07:15:10.709Z,96401.59
2023-05-06T07:17:39.176Z,96401.38
2023-05-06T07:20:09.080Z,96392.72
2023-05-06T07:22:37.456Z,96392.50
2023-05-06T07:25:08.678Z,96397.19
2023-05-06T07:27:37.095Z,96388.41
2023-05-06T07:30:06.162Z,96402.69
2023-05-06T07:32:34.427Z,96393.72
2023-05-06T07:35:02.803Z,96405.97
2023-05-06T07:37:31.050Z,96406.38
2023-05-06T07:39:59.723Z,96412.75
2023-05-06T07:42:29.492Z,96410.31
2023-05-06T07:44:57.782Z,96413.63
2023-05-06T07:47:31.452Z,96421.34
2023-05-06T07:50:00.228Z,96427.91
2023-05-06T07:52:29.432Z,96429.56
2023-05-06T07:54:57.715Z,96435.47
2023-05-06T07:57:26.005Z,96435.50
2023-05-06T07:59:55.559Z,96430.09
2023-05-06T08:02:23.932Z,96430.94
2023-05-06T08:04:52.278Z,96435.47
2023-05-06T08:07:21.246Z,96436.59
2023-05-06T08:09:49.491Z,96430.69
2023-05-06T08:12:17.768Z,96434.38
2023-05-06T08:14:46.650Z,96431.97
2023-05-06T08:17:16.280Z,96430.25
2023-05-06T08:19:44.757Z,96437.47
2023-05-06T08:22:13.019Z,96435.75
2023-05-06T08:24:41.307Z,96440.78
2023-05-06T08:27:09.647Z,96439.81
2023-05-06T08:29:37.912Z,96443.88
2023-05-06T08:32:06.643Z,96448.94
2023-05-06T08:34:36.376Z,96449.84
2023-05-06T08:37:04.623Z,96444.69
2023-05-06T08:39:33.224Z,96452.41
2023-05-06T08:42:03.028Z,96450.81
2023-05-06T08:44:31.471Z,96444.34
2023-05-06T08:46:59.858Z,96451.50
2023-05-06T08:49:28.330Z,96439.19
2023-05-06T08:51:58.107Z,96447.16
2023-05-06T08:54:27.497Z,96435.22
2023-05-06T08:56:58.113Z,96448.28
2023-05-06T08:59:27.636Z,96450.31
2023-05-06T09:01:55.940Z,96451.72
2023-05-06T09:04:24.279Z,96451.09
2023-05-06T09:06:52.560Z,96456.97
2023-05-06T09:09:22.321Z,96455.44
2023-05-06T09:11:54.052Z,96446.25
2023-05-06T09:14:23.123Z,96447.91
2023-05-06T09:16:53.417Z,96446.44
2023-05-06T09:19:22.966Z,96433.38
2023-05-06T09:21:52.364Z,96444.78
2023-05-06T09:24:22.321Z,96438.88
2023-05-06T09:26:52.482Z,96437.94
2023-05-06T09:29:20.688Z,96436.44
2023-05-06T09:31:49.734Z,96433.44
2023-05-06T09:34:18.125Z,96439.06
2023-05-06T09:36:46.378Z,96450.13
2023-05-06T09:39:14.717Z,96433.66
2023-05-06T09:41:45.132Z,96436.63
2023-05-06T09:44:14.039Z,96428.56
2023-05-06T09:46:42.417Z,96442.84
2023-05-06T09:49:11.578Z,96439.34
2023-05-06T09:51:41.506Z,96430.72
2023-05-06T09:54:10.170Z,96441.31
2023-05-06T09:56:38.808Z,96431.47
2023-05-06T09:59:08.857Z,96423.25
2023-05-06T10:01:37.972Z,96431.06
2023-05-06T10:04:09.816Z,96430.19
2023-05-06T10:06:41.600Z,96429.88
2023-05-06T10:09:13.010Z,96428.78
2023-05-06T10:11:41.536Z,96436.44
2023-05-06T10:14:11.310Z,96427.81
2023-05-06T10:16:40.474Z,96420.88
2023-05-06T10:19:09.849Z,96419.81
2023-05-06T10:21:41.696Z,96422.44
2023-05-06T10:24:13.784Z,96412.38
2023-05-06T10:26:48.040Z,96410.91
2023-05-06T10:29:18.729Z,96414.03
2023-05-06T10:31:49.747Z,96414.56
2023-05-06T10:34:21.103Z,96407.03
2023-05-06T10:36:51.951Z,96399.03
2023-05-06T10:39:20.242Z,96402.94
2023-05-06T10:41:48.745Z,96397.22
2023-05-06T10:44:18.343Z,96414.91
2023-05-06T10:47:00.914Z,96409.63
2023-05-06T10:49:29.835Z,96395.94
2023-05-06T10:52:12.523Z,96397.03
2023-05-06T10:54:51.449Z,96388.03
2023-05-06T10:57:28.726Z,96389.81
2023-05-06T10:59:58.774Z,96383.00
2023-05-06T11:02:27.132Z,96373.53
2023-05-06T11:05:01.798Z,96381.66
2023-05-06T11:07:30.182Z,96364.97
2023-05-06T11:09:59.578Z,96363.50
2023-05-06T11:13:00.093Z,96364.09
2023-05-06T11:15:40.507Z,96362.94
2023-05-06T11:18:42.437Z,96356.66
2023-05-06T11:21:41.633Z,96351.97
2023-05-06T11:24:14.026Z,96360.22
2023-05-06T11:26:43.196Z,96367.59
2023-05-06T11:29:11.502Z,96369.44
2023-05-06T11:31:42.954Z,96377.38
2023-05-06T11:34:13.671Z,96382.28
2023-05-06T11:36:49.484Z,96366.75
2023-05-06T11:39:17.830Z,96365.69
2023-05-06T11:41:49.763Z,96368.41
2023-05-06T11:44:26.008Z,96367.81
2023-05-06T11:46:59.164Z,96371.13
2023-05-06T11:49:28.196Z,96370.00
2023-05-06T11:51:58.044Z,96366.22
2023-05-06T11:54:33.205Z,96362.81
2023-05-06T11:57:02.127Z,96361.31
2023-05-06T11:59:32.759Z,96360.75
2023-05-06T12:02:04.267Z,96348.22
2023-05-06T12:04:39.795Z,96344.28
2023-05-06T12:07:08.685Z,96347.38
2023-05-06T12:09:37.286Z,96344.72
2023-05-06T12:12:06.598Z,96340.19
2023-05-06T12:14:35.212Z,96350.00
2023-05-06T12:17:05.283Z,96342.53
2023-05-06T12:19:33.964Z,96341.38
2023-05-06T12:22:19.019Z,96338.81
2023-05-06T12:24:47.804Z,96345.25
2023-05-06T12:27:16.448Z,96342.25
2023-05-06T12:29:53.837Z,96346.72
2023-05-06T12:32:23.816Z,96346.59
2023-05-06T12:34:52.208Z,96334.66
2023-05-06T12:37:29.848Z,96337.44
2023-05-06T12:39:59.358Z,96339.78
2023-05-06T12:42:28.105Z,96336.28
2023-05-06T12:44:56.606Z,96332.00
2023-05-06T12:47:27.004Z,96338.19
2023-05-06T12:50:07.931Z,96343.53
2023-05-06T12:52:44.689Z,96328.44
2023-05-06T12:55:18.624Z,96324.19
2023-05-06T12:57:49.211Z,96330.13
2023-05-06T13:00:18.149Z,96326.38
2023-05-06T13:02:48.135Z,96332.50
2023-05-06T13:05:16.554Z,96327.31
2023-05-06T13:07:45.027Z,96324.38
2023-05-06T13:10:14.952Z,96320.09
2023-05-06T13:12:43.585Z,96316.69
2023-05-06T13:15:12.116Z,96320.06
2023-05-06T13:17:40.522Z,96318.63
2023-05-06T13:20:13.190Z,96312.72
2023-05-06T13:22:53.913Z,96316.16
2023-05-06T13:25:22.988Z,96309.22
2023-05-06T13:27:51.282Z,96311.19
2023-05-06T13:30:19.549Z,96314.16
2023-05-06T13:32:48.707Z,96299.66
2023-05-06T13:35:18.498Z,96298.03
2023-05-06T13:37:46.887Z,96296.56
2023-05-06T13:40:15.773Z,96293.41
2023-05-06T13:42:43.976Z,96292.81
2023-05-06T13:45:12.387Z,96281.88
2023-05-06T13:47:42.316Z,96284.00
2023-05-06T13:50:11.448Z,96284.66
2023-05-06T13:52:41.245Z,96277.47
2023-05-06T13:55:10.168Z,96282.03
2023-05-06T13:57:38.604Z,96275.53
2023-05-06T14:00:08.366Z,96274.50
2023-05-06T14:02:37.356Z,96271.09
2023-05-06T14:05:06.854Z,96272.00
2023-05-06T14:07:35.241Z,96273.38
2023-05-06T14:10:05.546Z,96275.94
2023-05-06T14:12:33.677Z,96268.69
2023-05-06T14:15:02.056Z,96270.84
2023-05-06T14:17:30.535Z,96268.28
2023-05-06T14:19:58.797Z,96260.03
2023-05-06T14:22:27.104Z,96259.16
2023-05-06T14:24:55.455Z,96257.97
2023-05-06T14:27:25.170Z,96257.78
2023-05-06T14:29:53.457Z,96255.53
2023-05-06T14:32:21.722Z,96261.22
2023-05-06T14:34:49.984Z,96250.94
2023-05-06T14:37:18.765Z,96249.00
2023-05-06T14:39:47.276Z,96251.41
2023-05-06T14:42:15.590Z,96255.19
2023-05-06T14:44:48.597Z,96253.28
2023-05-06T14:47:16.829Z,96256.75
2023-05-06T14:49:45.379Z,96251.47
2023-05-06T14:52:13.752Z,96255.88
2023-05-06T14:54:42.539Z,96247.53
2023-05-06T14:57:11.317Z,96246.38
2023-05-06T14:59:39.750Z,96249.59
2023-05-06T15:02:10.693Z,96250.00
2023-05-06T15:04:38.952Z,96252.59
2023-05-06T15:07:07.231Z,96251.47
2023-05-06T15:09:35.592Z,96240.34
2023-05-06T15:12:03.916Z,96247.56
2023-05-06T15:14:32.282Z,96244.06
2023-05-06T15:17:00.734Z,96234.59
2023-05-06T15:19:30.432Z,96238.13
2023-05-06T15:21:58.756Z,96231.00
2023-05-06T15:24:27.225Z,96234.09
2023-05-06T15:26:55.790Z,96232.63
2023-05-06T15:29:24.697Z,96236.41
2023-05-06T15:31:53.036Z,96239.38
2023-05-06T15:34:21.431Z,96237.41
2023-05-06T15:36:54.100Z,96230.13
2023-05-06T15:39:22.577Z,96237.28
2023-05-06T15:41:50.917Z,96238.16
2023-05-06T15:44:20.899Z,96247.09
2023-05-06T15:46:49.373Z,96245.50
2023-05-06T15:49:48.842Z,96244.44
2023-05-06T15:52:07.172Z,96247.88
2023-05-06T15:54:37.598Z,96249.16
2023-05-06T15:57:07.020Z,96238.50
2023-05-06T15:59:35.691Z,96233.66
2023-05-06T16:04:35.449Z,96231.06
2023-05-06T16:07:03.931Z,96230.00
2023-05-06T16:09:33.575Z,96226.50
2023-05-06T16:12:01.882Z,96233.00
2023-05-06T16:14:30.152Z,96233.22
2023-05-06T16:16:59.367Z,96229.69
2023-05-06T16:19:30.240Z,96233.88
2023-05-06T16:22:11.930Z,96235.75
2023-05-06T16:24:41.877Z,96233.66
2023-05-06T16:27:10.098Z,96227.59
2023-05-06T16:29:38.478Z,96224.59
2023-05-06T16:32:07.038Z,96227.59
2023-05-06T16:34:35.342Z,96231.88
2023-05-06T16:37:03.690Z,96229.09
2023-05-06T16:39:31.959Z,96223.81
2023-05-06T16:42:01.840Z,96226.25
2023-05-06T16:44:30.481Z,96232.63
2023-05-06T16:46:58.745Z,96231.13
2023-05-06T16:49:28.123Z,96225.38
2023-05-06T16:51:57.221Z,96224.28
2023-05-06T16:54:25.670Z,96219.63
2023-05-06T16:56:54.114Z,96222.34
2023-05-06T16:59:23.739Z,96221.03
2023-05-06T17:01:51.934Z,96218.94
2023-05-06T17:04:20.165Z,96217.34
2023-05-06T17:06:48.473Z,96219.09
2023-05-06T17:09:17.019Z,96211.59
2023-05-06T17:11:45.397Z,96219.59
2023-05-06T17:14:13.987Z,96217.22
2023-05-06T17:16:45.238Z,96208.78
2023-05-06T17:19:13.891Z,96212.09
2023-05-06T17:21:42.684Z,96207.81
2023-05-06T17:24:11.255Z,96208.38
2023-05-06T17:26:40.811Z,96205.72
2023-05-06T17:29:09.034Z,96212.09
2023-05-06T17:31:37.280Z,96204.94
2023-05-06T17:34:07.502Z,96205.09
2023-05-06T17:36:35.786Z,96213.22
2023-05-06T17:39:04.619Z,96210.41
2023-05-06T17:41:33.579Z,96203.38
2023-05-06T17:44:01.850Z,96209.88
2023-05-06T17:46:30.184Z,96211.88
2023-05-06T17:48:58.473Z,96214.06
2023-05-06T17:51:28.120Z,96221.97
2023-05-06T17:53:56.452Z,96221.97
2023-05-06T17:56:24.707Z,96226.88
2023-05-06T17:58:53.816Z,96229.16
2023-05-06T18:01:22.521Z,96229.63
2023-05-06T18:03:50.907Z,96237.94
2023-05-06T18:06:19.261Z,96234.66
2023-05-06T18:08:49.074Z,96235.88
2023-05-06T18:11:17.413Z,96233.91
2023-05-06T18:13:45.630Z,96226.91
2023-05-06T18:16:13.917Z,96231.63
2023-05-06T18:18:43.417Z,96228.44
2023-05-06T18:21:11.647Z,96225.47
2023-05-06T18:23:39.987Z,96224.16
2023-05-06T18:26:09.564Z,96225.63
2023-05-06T18:28:38.648Z,96234.06
2023-05-06T18:31:07.575Z,96237.81
2023-05-06T18:33:37.641Z,96241.09
2023-05-06T18:36:06.838Z,96235.38
2023-05-06T18:38:35.862Z,96232.94
2023-05-06T18:41:04.054Z,96241.97
2023-05-06T18:43:33.768Z,96244.78
2023-05-06T18:46:02.143Z,96252.63
2023-05-06T18:48:31.948Z,96248.81
2023-05-06T18:51:17.059Z,96251.75
2023-05-06T18:53:45.826Z,96248.75
2023-05-06T18:56:14.770Z,96256.28
2023-05-06T18:58:49.362Z,96254.66
2023-05-06T19:01:17.792Z,96250.00
2023-05-06T19:03:46.133Z,96264.34
2023-05-06T19:06:14.355Z,96259.06
2023-05-06T19:08:42.637Z,96264.72
2023-05-06T19:11:15.257Z,96261.44
2023-05-06T19:13:56.526Z,96258.81
2023-05-06T19:16:25.756Z,96264.72
2023-05-06T19:18:56.337Z,96259.97
2023-05-06T19:21:27.944Z,96264.53
2023-05-06T19:23:59.885Z,96266.53
2023-05-06T19:26:28.410Z,96268.44
2023-05-06T19:28:58.009Z,96259.44
2023-05-06T19:31:26.512Z,96261.59
2023-05-06T19:33:54.873Z,96267.81
2023-05-06T19:36:23.194Z,96269.66
2023-05-06T19:38:51.483Z,96265.84
2023-05-06T19:41:19.846Z,96269.34
2023-05-06T19:43:48.129Z,96273.03
2023-05-06T19:46:18.087Z,96266.16
2023-05-06T19:48:46.708Z,96267.94
2023-05-06T19:51:14.991Z,96275.50
2023-05-06T19:53:43.252Z,96264.38
2023-05-06T19:56:11.898Z,96270.72
2023-05-06T19:58:42.087Z,96265.03
2023-05-06T20:01:10.839Z,96258.78
2023-05-06T20:03:45.168Z,96259.19
2023-05-06T20:06:17.170Z,96257.31
2023-05-06T20:08:46.030Z,96256.25
2023-05-06T20:11:14.314Z,96259.06
2023-05-06T20:13:42.633Z,96256.69
2023-05-06T20:16:11.132Z,96256.06
2023-05-06T20:18:42.821Z,96253.63
2023-05-06T20:21:11.122Z,96254.50
2023-05-06T20:23:39.318Z,96258.78
2023-05-06T20:26:07.573Z,96257.63
2023-05-06T20:28:39.074Z,96259.72
2023-05-06T20:31:07.662Z,96254.22
2023-05-06T20:33:36.109Z,96263.66
2023-05-06T20:36:06.584Z,96261.69
2023-05-06T20:38:34.734Z,96258.44
2023-05-06T20:41:03.169Z,96258.13
2023-05-06T20:43:32.642Z,96258.50
2023-05-06T20:46:01.225Z,96257.38
2023-05-06T20:48:31.317Z,96257.28
2023-05-06T20:50:59.688Z,96262.69
2023-05-06T20:53:29.366Z,96258.53
2023-05-06T20:55:57.649Z,96256.13
2023-05-06T20:58:26.026Z,96257.28
2023-05-06T21:00:54.340Z,96259.16
2023-05-06T21:03:24.008Z,96253.09
2023-05-06T21:05:53.141Z,96257.75
2023-05-06T21:08:21.525Z,96259.53
2023-05-06T21:10:51.228Z,96257.34
2023-05-06T21:13:19.860Z,96267.63
2023-05-06T21:15:48.306Z,96258.13
2023-05-06T21:18:17.206Z,96261.31
2023-05-06T21:20:45.582Z,96263.19
2023-05-06T21:23:13.806Z,96260.72
2023-05-06T21:25:42.360Z,96261.47
2023-05-06T21:28:12.138Z,96262.16
2023-05-06T21:30:40.627Z,96267.47
2023-05-06T21:33:11.118Z,96257.50
2023-05-06T21:35:39.499Z,96259.94
2023-05-06T21:38:08.033Z,96264.44
2023-05-06T21:40:36.500Z,96262.09
2023-05-06T21:43:04.773Z,96264.03
2023-05-06T21:45:34.398Z,96260.25
2023-05-06T21:48:02.811Z,96259.75
2023-05-06T21:50:31.165Z,96259.44
2023-05-06T21:52:59.518Z,96269.63
2023-05-06T21:55:27.872Z,96261.94
2023-05-06T21:57:56.222Z,96264.03
2023-05-06T22:00:24.592Z,96266.38
2023-05-06T22:02:54.497Z,96259.97
2023-05-06T22:05:23.068Z,96265.91
2023-05-06T22:07:51.455Z,96261.72
2023-05-06T22:10:19.946Z,96269.16
2023-05-06T22:12:48.204Z,96271.53
2023-05-06T22:15:16.552Z,96267.91
2023-05-06T22:17:44.939Z,96272.00
2023-05-06T22:20:15.146Z,96273.53
2023-05-06T22:22:43.784Z,96267.56
2023-05-06T22:25:12.256Z,96270.97
2023-05-06T22:27:40.947Z,96259.38
2023-05-06T22:30:10.495Z,96259.94
2023-05-06T22:32:38.888Z,96260.94
2023-05-06T22:35:08.902Z,96254.28
2023-05-06T22:37:38.802Z,96261.19
2023-05-06T22:40:08.195Z,96257.72
2023-05-06T22:42:36.458Z,96253.09
2023-05-06T22:45:05.469Z,96251.00
2023-05-06T22:47:33.744Z,96252.81
2023-05-06T22:50:02.177Z,96253.50
2023-05-06T22:52:30.638Z,96254.00
2023-05-06T22:55:00.561Z,96253.75
2023-05-06T22:57:28.892Z,96255.03
2023-05-06T22:59:57.195Z,96256.19
2023-05-06T23:02:25.472Z,96252.09
2023-05-06T23:04:53.757Z,96246.84
2023-05-06T23:07:22.053Z,96245.28
2023-05-06T23:09:50.297Z,96255.34
2023-05-06T23:12:19.878Z,96249.69
2023-05-06T23:14:48.089Z,96237.88
2023-05-06T23:17:16.407Z,96250.06
2023-05-06T23:19:45.941Z,96245.91
2023-05-06T23:22:14.277Z,96241.63
2023-05-06T23:24:42.574Z,96241.28
2023-05-06T23:27:11.382Z,96244.97
2023-05-06T23:29:41.185Z,96246.84
2023-05-06T23:32:09.943Z,96239.19
2023-05-06T23:34:38.315Z,96242.41
2023-05-06T23:37:06.623Z,96236.00
2023-05-06T23:39:34.898Z,96246.84
2023-05-06T23:42:03.346Z,96241.97
2023-05-06T23:44:31.661Z,96246.63
2023-05-06T23:47:01.467Z,96245.25
2023-05-06T23:49:29.719Z,96244.09
2023-05-06T23:51:58.129Z,96245.19
2023-05-06T23:54:26.362Z,96237.00
2023-05-06T23:56:55.678Z,96240.66
2023-05-06T23:59:24.041Z,96251.59
